Time;durP1;ratioP1;P1;durP2;ratioP2;P2;SDS_P1;SDS_P2;PMS_P1;PMS_P2;Temp;Humidity;BMP_temperature;BMP_pressure;BME280_temperature;BME280_humidity;BME280_pressure;Samples;Min_cycle;Max_cycle;Signal;HPM_P1;HPM_P2
2022/12/23 00:00:54;;;;;;;1.83;1.23;;;;;;;;;;6270717;22;20524;-60
2022/12/23 00:03:21;;;;;;;1.60;1.30;;;;;;;;;;6269588;22;20024;-60
2022/12/23 00:05:56;;;;;;;3.13;1.45;;;;;;;;;;6270317;22;20070;-59
2022/12/23 00:08:23;;;;;;;3.47;1.52;;;;;;;;;;6271070;22;20082;-60
2022/12/23 00:10:51;;;;;;;3.55;1.55;;;;;;;;;;6268101;22;20065;-59
2022/12/23 00:16:12;;;;;;;3.50;1.52;;;;;;;;;;6266082;22;20124;-62
2022/12/23 00:18:53;;;;;;;4.03;1.55;;;;;;;;;;6269444;22;20020;-62
2022/12/23 00:21:21;;;;;;;2.45;1.67;;;;;;;;;;6269105;22;20028;-62
2022/12/23 00:23:54;;;;;;;3.17;1.50;;;;;;;;;;6269217;22;20031;-62
2022/12/23 00:26:25;;;;;;;5.20;1.70;;;;;;;;;;6268766;22;20360;-62
2022/12/23 00:28:59;;;;;;;;;;;;;;;;;;6270139;22;20019;-62
2022/12/23 00:31:26;;;;;;;2.67;1.55;;;;;;;;;;6268614;22;20003;-60
2022/12/23 00:33:54;;;;;;;3.20;1.67;;;;;;;;;;6266080;22;20027;-60
2022/12/23 00:36:28;;;;;;;3.40;1.48;;;;;;;;;;6268646;22;20020;-61
2022/12/23 00:44:34;;;;;;;5.20;1.83;;;;;;;;;;6268257;22;20102;-60
2022/12/23 00:49:40;;;;;;;4.00;1.85;;;;;;;;;;6266728;22;20050;-60
2022/12/23 00:49:54;;;;;;;5.07;2.00;;;;;;;;;;6269881;22;20030;-50
2022/12/23 00:52:28;;;;;;;10.82;2.05;;;;;;;;;;6269918;22;20404;-47
2022/12/23 00:54:55;;;;;;;2.67;1.95;;;;;;;;;;6269211;22;20027;-48
2022/12/23 00:57:29;;;;;;;7.90;2.10;;;;;;;;;;6270364;22;20022;-49
2022/12/23 00:59:56;;;;;;;5.13;1.95;;;;;;;;;;6269407;22;20023;-48
2022/12/23 01:08:03;;;;;;;2.42;1.70;;;;;;;;;;6268330;22;20361;-61
2022/12/23 01:10:38;;;;;;;3.50;1.80;;;;;;;;;;6269606;22;20102;-47
2022/12/23 01:13:06;;;;;;;4.82;2.30;;;;;;;;;;6269468;22;20404;-46
2022/12/23 01:15:33;;;;;;;4.70;2.05;;;;;;;;;;6268402;22;20752;-45
2022/12/23 01:18:14;;;;;;;5.03;2.38;;;;;;;;;;6268252;22;20103;-47
2022/12/23 01:20:41;;;;;;;6.18;2.13;;;;;;;;;;6269677;22;20026;-52
2022/12/23 01:23:15;;;;;;;6.13;2.30;;;;;;;;;;6269687;22;20044;-51
2022/12/23 01:25:42;;;;;;;6.65;2.50;;;;;;;;;;6269757;22;20107;-63
2022/12/23 01:28:10;;;;;;;4.20;2.72;;;;;;;;;;6268473;22;20102;-60
2022/12/23 01:30:43;;;;;;;6.50;3.50;;;;;;;;;;6269750;22;20372;-61
2022/12/23 01:33:10;;;;;;;5.22;3.10;;;;;;;;;;6269828;22;20054;-61
2022/12/23 01:35:44;;;;;;;5.47;3.30;;;;;;;;;;6269320;22;20708;-61
2022/12/23 01:38:11;;;;;;;6.60;3.40;;;;;;;;;;6269007;22;20473;-61
2022/12/23 01:40:43;;;;;;;7.03;3.75;;;;;;;;;;6269441;22;20062;-61
2022/12/23 01:43:17;;;;;;;4.70;3.72;;;;;;;;;;6268984;22;20102;-61
2022/12/23 01:45:44;;;;;;;6.60;4.82;;;;;;;;;;6268578;22;20031;-61
2022/12/23 01:48:13;;;;;;;9.40;5.50;;;;;;;;;;6269520;22;20026;-60
2022/12/23 01:50:56;;;;;;;9.73;5.45;;;;;;;;;;6270451;22;20027;-60
2022/12/23 01:53:31;;;;;;;9.43;6.38;;;;;;;;;;6270065;22;20103;-60
2022/12/23 01:56:00;;;;;;;10.70;6.68;;;;;;;;;;6268375;22;20556;-60
2022/12/23 01:58:27;;;;;;;13.02;7.55;;;;;;;;;;6269676;22;20222;-60
2022/12/23 02:03:49;;;;;;;11.80;7.05;;;;;;;;;;6269573;22;20495;-60
2022/12/23 02:09:18;;;;;;;14.15;7.85;;;;;;;;;;6267672;22;20114;-56
2022/12/23 02:12:10;;;;;;;13.95;8.65;;;;;;;;;;6268685;22;20102;-57
2022/12/23 02:18:10;;;;;;;13.43;7.80;;;;;;;;;;6266598;22;20484;-58
2022/12/23 02:21:02;;;;;;;16.02;8.32;;;;;;;;;;6268334;22;20078;-52
2022/12/23 02:24:09;;;;;;;10.45;7.35;;;;;;;;;;6267724;22;20030;-58
2022/12/23 02:26:54;;;;;;;8.43;5.95;;;;;;;;;;6270303;22;20023;-57
2022/12/23 02:29:47;;;;;;;7.50;5.70;;;;;;;;;;6271169;22;20110;-59
2022/12/23 02:32:14;;;;;;;6.70;4.22;;;;;;;;;;6270701;22;20377;-55
2022/12/23 02:34:48;;;;;;;7.95;5.40;;;;;;;;;;6271761;22;20091;-59
2022/12/23 02:37:15;;;;;;;6.28;4.07;;;;;;;;;;6270147;22;20028;-57
2022/12/23 02:40:06;;;;;;;4.80;3.25;;;;;;;;;;6270831;22;20022;-55
2022/12/23 02:42:38;;;;;;;2.42;1.88;;;;;;;;;;6271869;22;20023;-62
2022/12/23 02:45:11;;;;;;;;;;;;;;;;;;6271492;22;20106;-62
2022/12/23 02:47:50;;;;;;;4.50;1.58;;;;;;;;;;6270898;22;20340;-63
2022/12/23 02:50:25;;;;;;;2.05;1.85;;;;;;;;;;6271148;22;20026;-63
2022/12/23 02:52:53;;;;;;;2.50;1.75;;;;;;;;;;6271145;22;20023;-63
2022/12/23 02:55:29;;;;;;;2.22;1.63;;;;;;;;;;6271146;22;20016;-62
2022/12/23 02:57:58;;;;;;;3.17;1.27;;;;;;;;;;6270062;22;20098;-57
2022/12/23 03:00:32;;;;;;;2.22;1.45;;;;;;;;;;6268286;22;20015;-51
2022/12/23 03:03:06;;;;;;;1.13;0.98;;;;;;;;;;6270715;22;20047;-47
2022/12/23 03:05:39;;;;;;;3.33;1.08;;;;;;;;;;6269469;22;20024;-46
2022/12/23 03:08:11;;;;;;;2.88;1.25;;;;;;;;;;6268631;22;20062;-48
2022/12/23 03:11:00;;;;;;;4.10;1.50;;;;;;;;;;6268610;22;20463;-46
2022/12/23 03:13:46;;;;;;;3.97;1.42;;;;;;;;;;6270954;22;20024;-50
2022/12/23 03:16:34;;;;;;;1.52;1.30;;;;;;;;;;6269526;22;20066;-61
2022/12/23 03:19:08;;;;;;;1.95;1.05;;;;;;;;;;6238339;23;20044;-46
2022/12/23 03:21:50;;;;;;;2.03;1.00;;;;;;;;;;6240166;23;20103;-46
2022/12/23 03:24:36;;;;;;;1.27;1.17;;;;;;;;;;6237737;23;20024;-47
2022/12/23 03:27:21;;;;;;;1.17;1.08;;;;;;;;;;6238464;23;20051;-46
2022/12/23 03:29:48;;;;;;;;;;;;;;;;;;6241054;23;20104;-47
2022/12/23 03:32:24;;;;;;;4.15;1.30;;;;;;;;;;6239269;23;20420;-46
2022/12/23 03:34:53;;;;;;;0.93;0.88;;;;;;;;;;6213641;23;20020;-56
2022/12/23 03:37:21;;;;;;;1.10;1.00;;;;;;;;;;6237953;23;20108;-56
2022/12/23 03:39:58;;;;;;;0.93;0.90;;;;;;;;;;6239633;23;20465;-55
2022/12/23 03:42:34;;;;;;;1.30;1.20;;;;;;;;;;6215023;23;20075;-58
2022/12/23 03:45:04;;;;;;;1.38;1.02;;;;;;;;;;6235667;23;20139;-58
2022/12/23 03:48:00;;;;;;;1.15;1.02;;;;;;;;;;6239518;23;20474;-56
2022/12/23 03:50:28;;;;;;;1.77;1.25;;;;;;;;;;6241229;23;20020;-59
2022/12/23 03:53:05;;;;;;;1.60;1.30;;;;;;;;;;6239773;23;20488;-52
2022/12/23 03:55:35;;;;;;;1.38;1.25;;;;;;;;;;6213048;23;20020;-59
2022/12/23 03:58:17;;;;;;;3.42;1.35;;;;;;;;;;6240131;23;20400;-61
2022/12/23 04:00:47;;;;;;;2.63;1.45;;;;;;;;;;6238670;23;20024;-60
2022/12/23 04:03:24;;;;;;;2.42;1.38;;;;;;;;;;6239147;23;20020;-60
2022/12/23 04:05:57;;;;;;;3.30;1.40;;;;;;;;;;6239891;23;20027;-60
2022/12/23 04:08:33;;;;;;;1.33;1.05;;;;;;;;;;6239616;23;20099;-59
2022/12/23 04:11:00;;;;;;;3.60;1.50;;;;;;;;;;6239223;23;20062;-54
2022/12/23 04:13:34;;;;;;;2.22;1.60;;;;;;;;;;6240631;23;20366;-51
2022/12/23 04:16:02;;;;;;;1.60;1.45;;;;;;;;;;6238462;23;20100;-54
2022/12/23 04:18:29;;;;;;;3.67;1.73;;;;;;;;;;6264858;22;20034;-51
2022/12/23 04:21:03;;;;;;;3.70;1.50;;;;;;;;;;6270524;22;20063;-54
2022/12/23 04:23:30;;;;;;;1.92;1.50;;;;;;;;;;6269812;22;20839;-53
2022/12/23 04:26:04;;;;;;;1.77;1.60;;;;;;;;;;6244178;22;20028;-54
2022/12/23 04:28:31;;;;;;;2.17;1.58;;;;;;;;;;6269426;22;20020;-47
2022/12/23 04:30:58;;;;;;;1.95;1.73;;;;;;;;;;6269211;22;20102;-62
2022/12/23 04:33:32;;;;;;;3.83;2.15;;;;;;;;;;6270585;22;20022;-47
2022/12/23 04:35:59;;;;;;;4.68;2.30;;;;;;;;;;6269775;22;20130;-47
2022/12/23 04:38:33;;;;;;;2.75;2.30;;;;;;;;;;6268865;22;20103;-49
2022/12/23 04:41:00;;;;;;;2.28;2.00;;;;;;;;;;6270343;22;20416;-46
2022/12/23 04:43:34;;;;;;;2.83;1.95;;;;;;;;;;6270047;22;20107;-46
2022/12/23 04:46:01;;;;;;;4.85;2.08;;;;;;;;;;6266621;22;20027;-50
2022/12/23 04:48:28;;;;;;;5.60;2.47;;;;;;;;;;6269670;22;20066;-57
2022/12/23 04:51:03;;;;;;;4.70;2.22;;;;;;;;;;6267408;22;20028;-61
2022/12/23 04:53:30;;;;;;;4.55;2.00;;;;;;;;;;6268563;22;20544;-61
2022/12/23 04:56:03;;;;;;;2.55;1.70;;;;;;;;;;6243659;22;20165;-61
2022/12/23 04:58:31;;;;;;;1.65;1.30;;;;;;;;;;6269498;22;20019;-61
2022/12/23 05:01:08;;;;;;;2.10;1.70;;;;;;;;;;6268001;22;20103;-61
2022/12/23 05:03:42;;;;;;;1.98;1.52;;;;;;;;;;6270367;22;20016;-61
2022/12/23 05:06:09;;;;;;;3.75;1.35;;;;;;;;;;6268690;22;20055;-61
2022/12/23 05:08:36;;;;;;;2.53;1.60;;;;;;;;;;6269889;22;20416;-62
2022/12/23 05:11:10;;;;;;;2.38;1.05;;;;;;;;;;6268370;22;20368;-46
2022/12/23 05:13:37;;;;;;;1.95;1.38;;;;;;;;;;6269671;22;20020;-47
2022/12/23 05:16:11;;;;;;;2.90;1.67;;;;;;;;;;6267522;22;20037;-48
2022/12/23 05:18:45;;;;;;;3.17;1.65;;;;;;;;;;6268423;22;20105;-48
2022/12/23 05:21:18;;;;;;;1.40;1.17;;;;;;;;;;6265200;22;20123;-49
2022/12/23 05:23:52;;;;;;;3.00;1.40;;;;;;;;;;6268449;22;20066;-47
2022/12/23 05:26:20;;;;;;;1.40;1.30;;;;;;;;;;6268290;22;20024;-61
2022/12/23 05:28:47;;;;;;;5.82;1.42;;;;;;;;;;6266876;22;20066;-46
2022/12/23 05:31:20;;;;;;;3.53;1.20;;;;;;;;;;6269207;22;20022;-46
2022/12/23 05:33:54;;;;;;;2.78;1.48;;;;;;;;;;6268999;22;20024;-50
2022/12/23 05:36:26;;;;;;;2.03;1.60;;;;;;;;;;6268011;22;20216;-47
2022/12/23 05:39:00;;;;;;;1.38;1.27;;;;;;;;;;6267424;22;20086;-46
2022/12/23 05:41:27;;;;;;;3.35;1.55;;;;;;;;;;6266747;22;20082;-46
2022/12/23 05:43:55;;;;;;;5.65;1.70;;;;;;;;;;6265477;22;20023;-61
2022/12/23 05:46:28;;;;;;;2.22;1.58;;;;;;;;;;6265421;22;20555;-53
2022/12/23 05:48:56;;;;;;;1.88;1.52;;;;;;;;;;6266072;22;20043;-55
2022/12/23 05:51:23;;;;;;;;;;;;;;;;;;6267669;22;20081;-51
2022/12/23 05:53:57;;;;;;;2.78;1.13;;;;;;;;;;6268553;22;20005;-58
2022/12/23 05:56:24;;;;;;;4.40;1.17;;;;;;;;;;6268243;22;20102;-55
2022/12/23 05:58:59;;;;;;;1.40;1.23;;;;;;;;;;6267230;22;20019;-53
2022/12/23 06:01:26;;;;;;;1.63;1.23;;;;;;;;;;6268157;22;20490;-58
2022/12/23 06:03:59;;;;;;;1.63;1.13;;;;;;;;;;6269810;22;20027;-60
2022/12/23 06:06:27;;;;;;;1.98;1.20;;;;;;;;;;6270792;22;20103;-59
2022/12/23 06:08:54;;;;;;;4.22;1.48;;;;;;;;;;6270550;22;20020;-59
2022/12/23 06:11:28;;;;;;;1.75;1.15;;;;;;;;;;6269793;22;20102;-58
2022/12/23 06:13:56;;;;;;;1.55;1.13;;;;;;;;;;6269672;22;20101;-60
2022/12/23 06:16:23;;;;;;;1.02;0.93;;;;;;;;;;6270574;22;20099;-60
2022/12/23 06:19:03;;;;;;;1.40;1.00;;;;;;;;;;6267733;22;20028;-60
2022/12/23 06:21:30;;;;;;;3.00;1.35;;;;;;;;;;6270244;22;20016;-60
2022/12/23 06:24:04;;;;;;;1.42;0.95;;;;;;;;;;6272035;22;20102;-50
2022/12/23 06:26:32;;;;;;;1.88;1.20;;;;;;;;;;6266714;22;20020;-48
2022/12/23 06:28:59;;;;;;;3.65;1.20;;;;;;;;;;6269467;22;20020;-47
2022/12/23 06:31:33;;;;;;;1.92;1.30;;;;;;;;;;6270409;22;20122;-47
2022/12/23 06:34:00;;;;;;;3.70;1.27;;;;;;;;;;6271304;22;20030;-46
2022/12/23 06:36:34;;;;;;;1.83;1.17;;;;;;;;;;6270060;22;20033;-47
2022/12/23 06:39:01;;;;;;;2.28;1.48;;;;;;;;;;6271331;22;20016;-46
2022/12/23 06:41:28;;;;;;;2.95;1.30;;;;;;;;;;6244918;22;20023;-61
2022/12/23 06:44:02;;;;;;;2.83;1.70;;;;;;;;;;6269839;22;20023;-60
2022/12/23 06:46:30;;;;;;;6.57;1.80;;;;;;;;;;6269538;22;20115;-60
2022/12/23 06:48:57;;;;;;;2.35;1.50;;;;;;;;;;6243143;22;20020;-59
2022/12/23 06:51:38;;;;;;;3.63;1.50;;;;;;;;;;6268630;22;20049;-60
2022/12/23 06:54:06;;;;;;;3.53;1.52;;;;;;;;;;6270230;22;20034;-60
2022/12/23 06:56:39;;;;;;;3.20;1.65;;;;;;;;;;6270180;22;20102;-59
2022/12/23 06:59:07;;;;;;;2.45;1.67;;;;;;;;;;6270919;22;20086;-57
2022/12/23 07:01:34;;;;;;;3.65;1.20;;;;;;;;;;6270508;22;20129;-60
2022/12/23 07:04:09;;;;;;;2.78;1.35;;;;;;;;;;6271574;22;20023;-60
2022/12/23 07:06:36;;;;;;;4.22;1.23;;;;;;;;;;6269410;22;20032;-57
2022/12/23 07:09:03;;;;;;;2.30;1.10;;;;;;;;;;6270498;22;20020;-59
2022/12/23 07:11:37;;;;;;;1.65;1.08;;;;;;;;;;6268622;22;20034;-60
2022/12/23 07:14:05;;;;;;;3.13;1.10;;;;;;;;;;6267294;22;20628;-60
2022/12/23 07:16:38;;;;;;;2.63;1.23;;;;;;;;;;6268382;22;20051;-59
2022/12/23 07:19:19;;;;;;;4.75;1.60;;;;;;;;;;6268907;22;20027;-61
2022/12/23 07:22:00;;;;;;;3.10;1.20;;;;;;;;;;6270992;22;20050;-60
2022/12/23 07:24:34;;;;;;;3.28;1.15;;;;;;;;;;6270762;22;20095;-60
2022/12/23 07:27:08;;;;;;;2.63;1.50;;;;;;;;;;6269531;22;20098;-61
2022/12/23 07:29:42;;;;;;;3.38;1.23;;;;;;;;;;6245438;22;20015;-60
2022/12/23 07:32:09;;;;;;;13.85;1.52;;;;;;;;;;6267137;22;20019;-58
2022/12/23 07:34:37;;;;;;;3.40;1.10;;;;;;;;;;6270492;22;20027;-49
2022/12/23 07:37:10;;;;;;;1.10;1.00;;;;;;;;;;6270710;22;20098;-60
2022/12/23 07:39:37;;;;;;;4.07;1.58;;;;;;;;;;6270755;22;20417;-60
2022/12/23 07:42:11;;;;;;;3.70;1.50;;;;;;;;;;6269356;22;20066;-61
2022/12/23 07:44:58;;;;;;;3.33;1.58;;;;;;;;;;6246827;22;20043;-61
2022/12/23 07:47:32;;;;;;;1.63;1.50;;;;;;;;;;6270310;22;20098;-61
2022/12/23 07:49:59;;;;;;;2.58;1.67;;;;;;;;;;6267917;22;20023;-60
2022/12/23 07:52:28;;;;;;;4.68;1.45;;;;;;;;;;6270896;22;20073;-60
2022/12/23 07:55:01;;;;;;;3.42;1.77;;;;;;;;;;6270480;22;20026;-58
2022/12/23 07:57:28;;;;;;;2.72;1.85;;;;;;;;;;6269446;22;20022;-61
2022/12/23 08:00:06;;;;;;;2.47;1.40;;;;;;;;;;6268070;22;20050;-57
2022/12/23 08:02:33;;;;;;;1.67;1.38;;;;;;;;;;6270411;22;20534;-59
2022/12/23 08:05:00;;;;;;;1.58;1.48;;;;;;;;;;6270064;22;20023;-59
2022/12/23 08:07:34;;;;;;;2.63;1.17;;;;;;;;;;6268377;22;20357;-59
2022/12/23 08:10:02;;;;;;;5.40;1.40;;;;;;;;;;6270166;22;20020;-60
2022/12/23 08:12:35;;;;;;;1.50;1.40;;;;;;;;;;6269458;22;20034;-59
2022/12/23 08:15:03;;;;;;;4.43;1.58;;;;;;;;;;6269418;22;20086;-59
2022/12/23 08:17:30;;;;;;;2.45;1.45;;;;;;;;;;6266926;22;20020;-59
2022/12/23 08:20:10;;;;;;;3.30;1.27;;;;;;;;;;6267796;22;20034;-58
2022/12/23 08:22:38;;;;;;;2.78;1.40;;;;;;;;;;6268229;22;20358;-59
2022/12/23 08:25:11;;;;;;;4.85;1.50;;;;;;;;;;6267357;22;20342;-60
2022/12/23 08:27:39;;;;;;;1.65;1.45;;;;;;;;;;6268320;22;20081;-61
2022/12/23 08:30:12;;;;;;;2.45;1.92;;;;;;;;;;6268801;22;20066;-47
2022/12/23 08:32:39;;;;;;;3.05;1.20;;;;;;;;;;6269132;22;20081;-62
2022/12/23 08:35:13;;;;;;;1.67;1.23;;;;;;;;;;6267998;22;20063;-63
2022/12/23 08:37:40;;;;;;;1.65;1.02;;;;;;;;;;6267890;22;20369;-63
2022/12/23 08:40:08;;;;;;;4.13;1.40;;;;;;;;;;6266266;22;20098;-63
2022/12/23 08:42:42;;;;;;;1.67;1.20;;;;;;;;;;6265473;22;20020;-62
2022/12/23 08:45:10;;;;;;;2.35;1.45;;;;;;;;;;6267499;22;20043;-63
2022/12/23 08:47:43;;;;;;;1.75;1.30;;;;;;;;;;6269276;22;20098;-60
2022/12/23 08:50:10;;;;;;;2.10;1.63;;;;;;;;;;6267397;22;20129;-60
2022/12/23 08:52:38;;;;;;;2.13;1.30;;;;;;;;;;6269652;22;20031;-60
2022/12/23 08:55:11;;;;;;;3.30;1.38;;;;;;;;;;6268587;22;20408;-60
2022/12/23 08:57:38;;;;;;;1.90;1.15;;;;;;;;;;6268367;22;20020;-60
2022/12/23 09:00:12;;;;;;;2.20;1.38;;;;;;;;;;6268638;22;20023;-60
2022/12/23 09:02:40;;;;;;;2.95;1.23;;;;;;;;;;6269575;22;20090;-60
2022/12/23 09:05:07;;;;;;;;;;;;;;;;;;6269363;22;20023;-61
2022/12/23 09:07:40;;;;;;;3.33;1.30;;;;;;;;;;6270911;22;19919;-45
2022/12/23 09:10:07;;;;;;;1.73;1.10;;;;;;;;;;6268466;22;20100;-60
2022/12/23 09:12:41;;;;;;;3.72;1.20;;;;;;;;;;6270667;22;20020;-56
2022/12/23 09:15:09;;;;;;;3.03;1.40;;;;;;;;;;6270461;22;20016;-60
2022/12/23 09:17:36;;;;;;;2.33;1.33;;;;;;;;;;6268691;22;20107;-58
2022/12/23 09:20:16;;;;;;;5.53;1.20;;;;;;;;;;6268522;22;20433;-58
2022/12/23 09:22:43;;;;;;;1.30;1.10;;;;;;;;;;6269745;22;20047;-59
2022/12/23 09:25:17;;;;;;;2.10;1.30;;;;;;;;;;6269595;22;20551;-60
2022/12/23 09:27:44;;;;;;;2.30;1.50;;;;;;;;;;6270604;22;20098;-60
2022/12/23 09:30:12;;;;;;;3.15;1.60;;;;;;;;;;6269029;22;20102;-61
2022/12/23 09:32:45;;;;;;;4.13;1.63;;;;;;;;;;6269292;22;20055;-60
2022/12/23 09:35:12;;;;;;;4.30;2.03;;;;;;;;;;6270268;22;20058;-59
2022/12/23 09:37:46;;;;;;;2.08;1.50;;;;;;;;;;6272143;22;20066;-61
2022/12/23 09:40:14;;;;;;;5.53;1.50;;;;;;;;;;6268722;22;20043;-60
2022/12/23 09:42:46;;;;;;;2.80;1.75;;;;;;;;;;6271340;22;20102;-58
2022/12/23 09:45:31;;;;;;;4.68;1.42;;;;;;;;;;6271276;22;20106;-58
2022/12/23 09:48:10;;;;;;;4.40;1.70;;;;;;;;;;6269752;22;20023;-61
2022/12/23 09:50:45;;;;;;;1.45;1.00;;;;;;;;;;6271052;22;20114;-57
2022/12/23 09:53:14;;;;;;;3.08;1.40;;;;;;;;;;6269358;22;20334;-60
2022/12/23 09:55:54;;;;;;;2.38;1.67;;;;;;;;;;6270961;22;20024;-59
2022/12/23 09:58:36;;;;;;;2.83;1.60;;;;;;;;;;6270068;22;20028;-57
2022/12/23 10:01:15;;;;;;;2.10;1.30;;;;;;;;;;6269689;22;20026;-60
2022/12/23 10:03:58;;;;;;;4.72;1.50;;;;;;;;;;6272452;22;20024;-51
2022/12/23 10:06:33;;;;;;;4.40;1.33;;;;;;;;;;6271238;22;20015;-54
2022/12/23 10:09:09;;;;;;;3.10;1.92;;;;;;;;;;6269786;22;20058;-54
2022/12/23 10:11:44;;;;;;;4.00;1.17;;;;;;;;;;6271441;22;20016;-58
2022/12/23 10:14:17;;;;;;;2.38;1.30;;;;;;;;;;6269484;22;20055;-57
2022/12/23 10:16:56;;;;;;;3.03;1.50;;;;;;;;;;6270378;22;20061;-51
2022/12/23 10:19:44;;;;;;;2.03;1.33;;;;;;;;;;6269778;22;20020;-63
2022/12/23 10:22:42;;;;;;;2.03;1.30;;;;;;;;;;6271099;22;20034;-60
2022/12/23 10:25:18;;;;;;;3.42;1.40;;;;;;;;;;6269062;22;20189;-60
2022/12/23 10:27:51;;;;;;;2.25;1.30;;;;;;;;;;6267405;22;20114;-60
2022/12/23 10:30:19;;;;;;;4.45;1.42;;;;;;;;;;6267273;22;20062;-60
2022/12/23 10:33:33;;;;;;;3.25;1.10;;;;;;;;;;6267125;22;20393;-61
2022/12/23 10:36:30;;;;;;;3.80;1.23;;;;;;;;;;6219702;22;20081;-60
2022/12/23 10:39:18;;;;;;;4.63;1.50;;;;;;;;;;6257458;22;20468;-61
2022/12/23 10:42:06;;;;;;;2.53;1.15;;;;;;;;;;6271095;22;20020;-63
2022/12/23 10:44:45;;;;;;;3.63;1.35;;;;;;;;;;6271155;22;20027;-63
2022/12/23 10:47:31;;;;;;;2.42;1.30;;;;;;;;;;6268753;22;20099;-63
2022/12/23 10:50:14;;;;;;;8.05;1.20;;;;;;;;;;6268927;22;20103;-63
2022/12/23 10:52:44;;;;;;;2.03;1.20;;;;;;;;;;6270064;22;20469;-63
2022/12/23 10:55:29;;;;;;;2.45;0.98;;;;;;;;;;6270280;22;20424;-63
2022/12/23 10:58:06;;;;;;;2.78;1.13;;;;;;;;;;6269479;22;20065;-52
2022/12/23 11:00:42;;;;;;;2.72;1.38;;;;;;;;;;6270158;22;20070;-57
2022/12/23 11:03:16;;;;;;;2.40;1.10;;;;;;;;;;6269505;22;20020;-58
2022/12/23 11:05:51;;;;;;;3.08;1.25;;;;;;;;;;6270316;22;20046;-54
2022/12/23 11:08:26;;;;;;;1.85;1.00;;;;;;;;;;6269395;22;20290;-60
2022/12/23 11:10:53;;;;;;;1.52;1.25;;;;;;;;;;6268522;22;20058;-59
2022/12/23 11:13:34;;;;;;;1.42;1.02;;;;;;;;;;6269717;22;20110;-46
2022/12/23 11:16:11;;;;;;;1.92;0.98;;;;;;;;;;6270230;22;20089;-48
2022/12/23 11:19:01;;;;;;;4.05;1.35;;;;;;;;;;6268261;22;20085;-63
2022/12/23 11:21:29;;;;;;;3.50;1.30;;;;;;;;;;6269054;22;20020;-63
2022/12/23 11:24:09;;;;;;;4.25;1.38;;;;;;;;;;6268257;22;20095;-63
2022/12/23 11:26:36;;;;;;;3.63;1.00;;;;;;;;;;6269120;22;20063;-62
2022/12/23 11:29:12;;;;;;;3.47;2.33;;;;;;;;;;6268957;22;20062;-63
2022/12/23 11:31:41;;;;;;;3.35;1.40;;;;;;;;;;6269510;22;20034;-56
2022/12/23 11:34:18;;;;;;;2.45;1.50;;;;;;;;;;6268604;22;20670;-60
2022/12/23 11:36:52;;;;;;;2.92;1.60;;;;;;;;;;6268723;22;20082;-55
2022/12/23 11:39:34;;;;;;;1.88;1.20;;;;;;;;;;6269420;22;20493;-55
2022/12/23 11:42:15;;;;;;;2.75;1.30;;;;;;;;;;6269350;22;20027;-54
2022/12/23 11:44:50;;;;;;;5.75;1.30;;;;;;;;;;6269800;22;20019;-56
2022/12/23 11:47:19;;;;;;;2.08;1.42;;;;;;;;;;6269550;22;20023;-50
2022/12/23 11:50:10;;;;;;;1.77;1.20;;;;;;;;;;6268602;22;20455;-52
2022/12/23 11:52:49;;;;;;;3.67;1.30;;;;;;;;;;6232316;22;20110;-49
2022/12/23 11:55:24;;;;;;;2.95;1.25;;;;;;;;;;6266126;22;20062;-59
2022/12/23 11:57:58;;;;;;;1.88;1.02;;;;;;;;;;6267097;22;20031;-58
2022/12/23 12:00:29;;;;;;;2.17;1.13;;;;;;;;;;6269693;22;20020;-59
2022/12/23 12:03:04;;;;;;;4.03;1.30;;;;;;;;;;6265852;22;20059;-59
2022/12/23 12:05:34;;;;;;;2.92;1.70;;;;;;;;;;6268687;22;20019;-59
2022/12/23 12:08:08;;;;;;;3.58;1.88;;;;;;;;;;6267667;22;20059;-59
2022/12/23 12:10:42;;;;;;;5.80;1.70;;;;;;;;;;6267965;22;20065;-57
2022/12/23 12:13:22;;;;;;;5.28;1.70;;;;;;;;;;6269446;22;20062;-60
2022/12/23 12:15:55;;;;;;;4.00;1.73;;;;;;;;;;6267380;22;20535;-60
2022/12/23 12:18:42;;;;;;;6.03;1.98;;;;;;;;;;6261221;22;20090;-60
2022/12/23 12:21:28;;;;;;;5.13;1.92;;;;;;;;;;6266569;22;20053;-60
2022/12/23 12:24:07;;;;;;;3.50;1.85;;;;;;;;;;6268790;22;20022;-60
2022/12/23 12:26:49;;;;;;;7.40;2.47;;;;;;;;;;6267683;22;20051;-59
2022/12/23 12:29:23;;;;;;;5.57;2.25;;;;;;;;;;6269576;22;20078;-59
2022/12/23 12:31:52;;;;;;;3.17;1.65;;;;;;;;;;6270579;22;20098;-63
2022/12/23 12:34:25;;;;;;;4.28;2.10;;;;;;;;;;6267809;22;20102;-62
2022/12/23 12:37:13;;;;;;;2.97;1.83;;;;;;;;;;6267521;22;20484;-63
2022/12/23 12:40:02;;;;;;;6.72;1.90;;;;;;;;;;6269501;22;20062;-63
2022/12/23 12:42:32;;;;;;;3.15;1.60;;;;;;;;;;6269146;22;20031;-63
2022/12/23 12:45:23;;;;;;;2.88;1.67;;;;;;;;;;6269366;22;20106;-60
2022/12/23 12:47:55;;;;;;;5.72;1.95;;;;;;;;;;6269044;22;20051;-61
2022/12/23 12:50:50;;;;;;;3.55;1.52;;;;;;;;;;6267835;22;20022;-48
2022/12/23 12:53:19;;;;;;;5.68;1.73;;;;;;;;;;6267921;22;20031;-48
2022/12/23 12:55:55;;;;;;;3.22;1.60;;;;;;;;;;6269294;22;20030;-52
2022/12/23 12:58:23;;;;;;;3.78;1.63;;;;;;;;;;6268176;22;20110;-47
2022/12/23 13:01:00;;;;;;;6.53;1.90;;;;;;;;;;6266918;22;20026;-49
2022/12/23 13:03:33;;;;;;;4.10;1.60;;;;;;;;;;6269734;22;20046;-60
2022/12/23 13:06:26;;;;;;;3.30;1.60;;;;;;;;;;6268696;22;20800;-60
2022/12/23 13:09:03;;;;;;;3.88;2.10;;;;;;;;;;6268088;22;20106;-48
2022/12/23 13:11:43;;;;;;;2.55;1.70;;;;;;;;;;6267363;22;20102;-46
2022/12/23 13:14:32;;;;;;;3.53;2.08;;;;;;;;;;6269446;22;20095;-50
2022/12/23 13:17:11;;;;;;;4.07;1.58;;;;;;;;;;6268844;22;20030;-49
2022/12/23 13:20:00;;;;;;;2.70;1.55;;;;;;;;;;6268619;22;20024;-45
2022/12/23 13:22:34;;;;;;;3.70;1.48;;;;;;;;;;6267353;22;20515;-62
2022/12/23 13:25:05;;;;;;;8.57;1.85;;;;;;;;;;6268663;22;20782;-58
2022/12/23 13:28:04;;;;;;;4.72;2.00;;;;;;;;;;6267821;22;20106;-53
2022/12/23 13:30:42;;;;;;;2.00;1.50;;;;;;;;;;6192578;22;20712;-49
2022/12/23 13:33:18;;;;;;;5.72;1.80;;;;;;;;;;6267985;22;20778;-50
2022/12/23 13:35:51;;;;;;;6.15;1.80;;;;;;;;;;6269383;22;20047;-52
2022/12/23 13:38:21;;;;;;;3.92;1.50;;;;;;;;;;6267377;22;20102;-53
2022/12/23 13:41:14;;;;;;;3.38;1.52;;;;;;;;;;6270247;22;20077;-49
2022/12/23 13:43:43;;;;;;;7.57;1.83;;;;;;;;;;6242410;22;20094;-61
2022/12/23 13:46:35;;;;;;;3.63;1.52;;;;;;;;;;6267224;22;20093;-61
2022/12/23 13:49:09;;;;;;;5.75;1.65;;;;;;;;;;6267985;22;20107;-61
2022/12/23 13:51:52;;;;;;;2.80;1.50;;;;;;;;;;6268810;22;20105;-61
2022/12/23 13:54:25;;;;;;;3.38;1.52;;;;;;;;;;6268227;22;20403;-62
2022/12/23 13:57:13;;;;;;;6.03;1.60;;;;;;;;;;6268515;22;20058;-61
2022/12/23 14:00:12;;;;;;;7.78;1.60;;;;;;;;;;6268437;22;20047;-60
2022/12/23 14:02:59;;;;;;;3.85;1.77;;;;;;;;;;6267722;22;20405;-55
2022/12/23 14:05:35;;;;;;;3.55;1.58;;;;;;;;;;6267265;22;20390;-51
2022/12/23 14:08:18;;;;;;;4.85;1.60;;;;;;;;;;6267485;22;20024;-51
2022/12/23 14:11:00;;;;;;;7.25;1.83;;;;;;;;;;6270155;22;20020;-53
2022/12/23 14:13:41;;;;;;;3.53;1.77;;;;;;;;;;6268265;22;20024;-53
2022/12/23 14:16:23;;;;;;;2.58;1.40;;;;;;;;;;6267891;22;20026;-54
2022/12/23 14:19:20;;;;;;;5.70;1.90;;;;;;;;;;6239670;22;20031;-61
2022/12/23 14:22:10;;;;;;;5.22;1.83;;;;;;;;;;6270428;22;20027;-49
2022/12/23 14:25:03;;;;;;;5.15;1.88;;;;;;;;;;6243646;22;20047;-51
2022/12/23 14:27:39;;;;;;;4.47;2.45;;;;;;;;;;6271412;22;20770;-50
2022/12/23 14:30:37;;;;;;;3.72;1.70;;;;;;;;;;6270700;22;20030;-52
2022/12/23 14:33:27;;;;;;;6.22;2.38;;;;;;;;;;6245633;22;20020;-51
2022/12/23 14:36:13;;;;;;;6.40;1.77;;;;;;;;;;6271197;22;20098;-55
2022/12/23 14:39:06;;;;;;;7.55;2.42;;;;;;;;;;6270427;22;20116;-63
2022/12/23 14:41:50;;;;;;;6.05;2.75;;;;;;;;;;6245807;22;20098;-64
2022/12/23 14:44:35;;;;;;;4.93;2.10;;;;;;;;;;6267415;22;20055;-64
2022/12/23 14:47:32;;;;;;;11.43;3.08;;;;;;;;;;6270723;22;20352;-64
2022/12/23 14:50:25;;;;;;;4.20;2.20;;;;;;;;;;6245415;22;20388;-64
2022/12/23 14:53:01;;;;;;;7.22;2.95;;;;;;;;;;6268788;22;20406;-64
2022/12/23 14:55:29;;;;;;;14.70;5.70;;;;;;;;;;6271324;22;20465;-64
2022/12/23 14:58:29;;;;;;;21.77;8.82;;;;;;;;;;6270518;22;20024;-64
2022/12/23 15:01:00;;;;;;;10.48;4.05;;;;;;;;;;6265166;22;20102;-63
2022/12/23 15:03:39;;;;;;;8.93;3.35;;;;;;;;;;6271056;22;20051;-64
2022/12/23 15:06:07;;;;;;;8.45;3.15;;;;;;;;;;6267008;22;20102;-64
2022/12/23 15:08:41;;;;;;;11.77;3.67;;;;;;;;;;6268906;22;20103;-63
2022/12/23 15:11:14;;;;;;;10.15;4.10;;;;;;;;;;6268595;22;20415;-63
2022/12/23 15:13:50;;;;;;;13.77;5.38;;;;;;;;;;6270826;22;20400;-62
2022/12/23 15:16:18;;;;;;;8.95;4.70;;;;;;;;;;6270583;22;20574;-63
2022/12/23 15:18:56;;;;;;;10.07;3.97;;;;;;;;;;6269595;22;20038;-63
2022/12/23 15:21:37;;;;;;;9.82;4.25;;;;;;;;;;6271513;22;20047;-63
2022/12/23 15:24:04;;;;;;;10.77;3.22;;;;;;;;;;6269531;22;20106;-63
2022/12/23 15:26:38;;;;;;;7.45;2.70;;;;;;;;;;6269829;22;20070;-64
2022/12/23 15:29:26;;;;;;;4.45;2.80;;;;;;;;;;6269997;22;20020;-63
2022/12/23 15:32:00;;;;;;;6.10;2.22;;;;;;;;;;6271615;22;20023;-56
2022/12/23 15:34:29;;;;;;;4.82;2.40;;;;;;;;;;6269690;22;20507;-51
2022/12/23 15:36:57;;;;;;;5.38;2.38;;;;;;;;;;6267427;22;20024;-50
2022/12/23 15:39:35;;;;;;;6.30;2.78;;;;;;;;;;6270858;22;20348;-50
2022/12/23 15:42:03;;;;;;;6.70;2.78;;;;;;;;;;6271512;22;20020;-48
2022/12/23 15:44:38;;;;;;;6.82;2.35;;;;;;;;;;6269519;22;20055;-50
2022/12/23 15:47:24;;;;;;;9.18;2.65;;;;;;;;;;6269233;22;20051;-49
2022/12/23 15:49:58;;;;;;;7.80;2.72;;;;;;;;;;6268257;22;20028;-60
2022/12/23 15:52:27;;;;;;;7.45;2.90;;;;;;;;;;6265987;22;20393;-61